createdAt,value
2019-04-26T00:02:32.599Z,9.31
2019-04-26T00:05:03.011Z,9.40
2019-04-26T00:07:32.779Z,9.27
2019-04-26T00:10:03.866Z,9.26
2019-04-26T00:12:37.975Z,9.21
2019-04-26T00:15:19.501Z,9.21
2019-04-26T00:17:52.220Z,9.16
2019-04-26T00:20:21.683Z,9.18
2019-04-26T00:22:51.046Z,9.18
2019-04-26T00:25:20.330Z,9.21
2019-04-26T00:27:49.619Z,9.23
2019-04-26T00:30:19.171Z,9.22
2019-04-26T00:32:48.611Z,9.22
2019-04-26T00:35:17.883Z,9.15
2019-04-26T00:37:47.157Z,9.15
2019-04-26T00:40:16.443Z,9.09
2019-04-26T00:42:46.275Z,9.11
2019-04-26T00:45:16.663Z,9.04
2019-04-26T00:47:46.326Z,9.09
2019-04-26T00:50:17.074Z,9.09
2019-04-26T00:52:46.740Z,9.13
2019-04-26T00:55:17.562Z,9.09
2019-04-26T00:57:47.205Z,9.07
2019-04-26T01:00:18.153Z,9.16
2019-04-26T01:02:49.111Z,9.21
2019-04-26T01:05:18.942Z,9.17
2019-04-26T01:07:50.013Z,9.14
2019-04-26T01:10:21.625Z,9.12
2019-04-26T01:12:50.971Z,9.15
2019-04-26T01:15:23.170Z,9.08
2019-04-26T01:17:52.838Z,9.09
2019-04-26T01:20:22.900Z,9.08
2019-04-26T01:22:54.105Z,9.03
2019-04-26T01:25:41.019Z,8.96
2019-04-26T01:28:13.524Z,9.01
2019-04-26T01:30:44.792Z,9.00
2019-04-26T01:33:14.274Z,8.99
2019-04-26T01:35:44.705Z,8.98
2019-04-26T01:38:15.604Z,9.03
2019-04-26T01:40:48.214Z,9.02
2019-04-26T01:43:20.223Z,8.97
2019-04-26T01:45:56.425Z,8.88
2019-04-26T01:48:56.433Z,8.81
2019-04-26T01:51:40.101Z,8.77
2019-04-26T01:54:11.510Z,8.78
2019-04-26T01:56:40.976Z,8.79
2019-04-26T01:59:11.875Z,8.76
2019-04-26T02:01:42.826Z,8.69
2019-04-26T02:04:12.195Z,8.69
2019-04-26T02:06:41.490Z,8.70
2019-04-26T02:09:12.040Z,8.68
2019-04-26T02:11:41.880Z,8.63
2019-04-26T02:14:11.235Z,8.64
2019-04-26T02:16:40.816Z,8.63
2019-04-26T02:19:11.601Z,8.62
2019-04-26T02:21:45.499Z,8.61
2019-04-26T02:24:26.393Z,8.62
2019-04-26T02:26:57.277Z,8.59
2019-04-26T02:29:28.484Z,8.55
2019-04-26T02:32:04.207Z,8.56
2019-04-26T02:34:36.003Z,8.50
2019-04-26T02:37:08.468Z,8.46
2019-04-26T02:39:39.889Z,8.43
2019-04-26T02:42:32.302Z,8.51
2019-04-26T02:45:18.300Z,8.46
2019-04-26T02:48:06.059Z,8.38
2019-04-26T02:50:49.299Z,8.30
2019-04-26T02:53:31.537Z,8.22
2019-04-26T02:56:30.336Z,8.18
2019-04-26T02:59:12.869Z,8.18
2019-04-26T03:01:42.510Z,8.16
2019-04-26T03:04:12.083Z,8.13
2019-04-26T03:06:43.279Z,8.14
2019-04-26T03:09:15.119Z,8.08
2019-04-26T03:11:50.679Z,8.05
2019-04-26T03:14:21.575Z,8.06
2019-04-26T03:17:05.319Z,8.04
2019-04-26T03:19:51.458Z,8.08
2019-04-26T03:22:40.411Z,8.08
2019-04-26T03:25:18.420Z,8.06
2019-04-26T03:28:05.848Z,8.08
2019-04-26T03:30:51.235Z,8.10
2019-04-26T03:33:43.069Z,8.07
2019-04-26T03:36:50.213Z,8.11
2019-04-26T03:39:37.257Z,8.09
2019-04-26T03:42:36.530Z,8.09
2019-04-26T03:45:11.846Z,8.09
2019-04-26T03:47:45.875Z,8.04
2019-04-26T03:50:18.484Z,8.04
2019-04-26T03:52:57.130Z,8.10
2019-04-26T03:55:31.249Z,8.08
2019-04-26T03:58:05.396Z,8.08
2019-04-26T04:00:39.499Z,8.09
2019-04-26T04:03:22.333Z,8.05
2019-04-26T04:05:55.380Z,8.04
2019-04-26T04:08:30.567Z,8.03
2019-04-26T04:11:05.752Z,8.05
2019-04-26T04:13:46.502Z,8.12
2019-04-26T04:16:39.324Z,8.15
2019-04-26T04:19:34.316Z,8.14
2019-04-26T04:22:14.495Z,8.17
2019-04-26T04:24:51.182Z,8.09
2019-04-26T04:27:26.777Z,8.11
2019-04-26T04:30:11.080Z,8.04
2019-04-26T04:33:16.827Z,8.05
2019-04-26T04:35:49.424Z,8.10
2019-04-26T04:38:34.762Z,8.16
2019-04-26T04:41:14.134Z,8.11
2019-04-26T04:43:49.262Z,8.22
2019-04-26T04:46:45.829Z,8.20
2019-04-26T04:49:32.866Z,8.20
2019-04-26T04:52:05.308Z,8.17
2019-04-26T04:54:44.712Z,8.16
2019-04-26T04:57:20.886Z,8.12
2019-04-26T04:59:59.101Z,8.10
2019-04-26T05:02:43.312Z,8.11
2019-04-26T05:05:26.098Z,8.07
2019-04-26T05:08:07.500Z,8.02
2019-04-26T05:10:39.982Z,8.03
2019-04-26T05:13:12.423Z,8.02
2019-04-26T05:16:12.242Z,8.02
2019-04-26T05:18:56.979Z,8.05
2019-04-26T05:21:48.775Z,8.08
2019-04-26T05:24:40.619Z,8.14
2019-04-26T05:27:20.524Z,8.13
2019-04-26T05:29:57.215Z,8.23
2019-04-26T05:32:41.664Z,8.37
2019-04-26T05:35:42.767Z,8.35
2019-04-26T05:38:39.178Z,8.46
2019-04-26T05:41:14.587Z,8.59
2019-04-26T05:44:00.317Z,8.81
2019-04-26T05:46:46.815Z,8.93
2019-04-26T05:49:53.761Z,9.02
2019-04-26T05:52:46.564Z,9.02
2019-04-26T05:55:28.825Z,9.77
2019-04-26T05:58:13.266Z,9.44
2019-04-26T06:01:14.646Z,9.18
2019-04-26T06:04:14.061Z,8.95
2019-04-26T06:06:48.186Z,8.78
2019-04-26T06:09:40.393Z,8.64
2019-04-26T06:12:35.133Z,8.63
2019-04-26T06:15:28.288Z,8.82
2019-04-26T06:18:27.237Z,9.01
2019-04-26T06:21:08.820Z,8.96
2019-04-26T06:23:40.729Z,8.76
2019-04-26T06:26:35.906Z,8.90
2019-04-26T06:29:08.373Z,8.95
2019-04-26T06:31:43.900Z,9.06
2019-04-26T06:34:18.962Z,9.36
2019-04-26T06:37:16.864Z,9.66
2019-04-26T06:40:05.761Z,9.69
2019-04-26T06:42:54.890Z,9.72
2019-04-26T06:45:41.585Z,9.87
2019-04-26T06:48:35.310Z,10.01
2019-04-26T06:51:25.018Z,10.16
2019-04-26T06:54:13.677Z,10.30
2019-04-26T06:57:11.565Z,10.36
2019-04-26T06:59:44.045Z,10.29
2019-04-26T07:02:37.591Z,10.30
2019-04-26T07:05:19.691Z,10.28
2019-04-26T07:08:05.007Z,10.46
2019-04-26T07:10:40.172Z,10.18
2019-04-26T07:13:39.833Z,10.40
2019-04-26T07:16:23.168Z,10.37
2019-04-26T07:19:13.811Z,10.45
2019-04-26T07:21:52.073Z,10.48
2019-04-26T07:24:38.262Z,10.70
2019-04-26T07:27:25.230Z,10.81
2019-04-26T07:30:17.041Z,10.79
2019-04-26T07:33:10.419Z,10.91
2019-04-26T07:36:01.207Z,10.98
2019-04-26T07:38:53.982Z,11.19
2019-04-26T07:42:01.691Z,11.45
2019-04-26T07:44:42.140Z,11.43
2019-04-26T07:47:34.274Z,11.49
2019-04-26T07:50:15.973Z,11.44
2019-04-26T07:53:07.406Z,11.39
2019-04-26T07:55:43.371Z,11.52
2019-04-26T07:58:38.888Z,11.56
2019-04-26T08:01:28.000Z,11.80
2019-04-26T08:04:07.261Z,12.05
2019-04-26T08:06:45.272Z,11.85
2019-04-26T08:09:26.599Z,11.96
2019-04-26T08:11:51.880Z,11.77
2019-04-26T08:14:23.872Z,11.92
2019-04-26T08:17:16.107Z,12.29
2019-04-26T08:19:48.652Z,12.29
2019-04-26T08:22:23.063Z,12.27
2019-04-26T08:24:52.146Z,12.35
2019-04-26T08:27:24.396Z,12.41
2019-04-26T08:29:56.868Z,12.42
2019-04-26T08:32:32.202Z,12.97
2019-04-26T08:35:14.335Z,13.16
2019-04-26T08:37:55.349Z,12.89
2019-04-26T08:40:30.933Z,13.00
2019-04-26T08:43:02.884Z,13.37
2019-04-26T08:46:02.867Z,13.76
2019-04-26T08:48:37.105Z,13.83
2019-04-26T08:51:09.277Z,13.66
2019-04-26T08:53:40.491Z,13.54
2019-04-26T08:56:11.745Z,13.62
2019-04-26T08:58:43.434Z,13.77
2019-04-26T09:01:22.506Z,13.96
2019-04-26T09:03:55.260Z,13.88
2019-04-26T09:06:34.686Z,14.36
2019-04-26T09:09:08.835Z,14.58
2019-04-26T09:11:39.775Z,14.42
2019-04-26T09:14:09.629Z,14.20
2019-04-26T09:16:49.898Z,14.02
2019-04-26T09:19:10.159Z,14.16
2019-04-26T09:21:41.147Z,14.29
2019-04-26T09:24:14.879Z,15.06
2019-04-26T09:26:46.931Z,16.20
2019-04-26T09:29:18.827Z,17.07
2019-04-26T09:32:06.153Z,18.34
2019-04-26T09:34:41.298Z,19.14
2019-04-26T09:37:11.817Z,20.94
2019-04-26T09:39:42.073Z,21.16
2019-04-26T09:42:13.951Z,20.65
2019-04-26T09:44:50.697Z,23.09
2019-04-26T09:47:33.695Z,21.31
2019-04-26T09:50:20.084Z,22.72
2019-04-26T09:52:52.841Z,22.23
2019-04-26T09:55:34.513Z,21.24
2019-04-26T09:57:53.632Z,22.71
2019-04-26T10:00:26.207Z,23.66
2019-04-26T10:02:55.557Z,20.75
2019-04-26T10:05:25.096Z,20.86
2019-04-26T10:07:54.480Z,20.73
2019-04-26T10:10:25.535Z,20.18
2019-04-26T10:13:09.832Z,18.97
2019-04-26T10:15:43.463Z,19.61
2019-04-26T10:18:14.368Z,20.11
2019-04-26T10:20:43.661Z,21.45
2019-04-26T10:23:13.005Z,20.58
2019-04-26T10:25:42.473Z,20.76
2019-04-26T10:28:15.888Z,20.78
2019-04-26T10:30:43.976Z,20.51
2019-04-26T10:33:14.418Z,22.61
2019-04-26T10:35:43.995Z,20.46
2019-04-26T10:38:13.257Z,20.56
2019-04-26T10:40:43.617Z,19.88
2019-04-26T10:43:13.234Z,21.33
2019-04-26T10:45:45.909Z,23.29
2019-04-26T10:48:15.480Z,24.53
2019-04-26T10:50:44.998Z,24.79
2019-04-26T10:53:19.729Z,22.99
2019-04-26T10:56:07.403Z,20.45
2019-04-26T10:58:41.512Z,22.01
2019-04-26T11:01:15.445Z,21.79
2019-04-26T11:03:45.132Z,21.14
2019-04-26T11:06:14.641Z,23.02
2019-04-26T11:08:43.896Z,21.86
2019-04-26T11:11:13.446Z,21.88
2019-04-26T11:13:43.049Z,21.96
2019-04-26T11:16:15.248Z,20.65
2019-04-26T11:18:44.701Z,19.23
2019-04-26T11:21:16.361Z,18.02
2019-04-26T11:23:46.766Z,17.26
2019-04-26T11:26:16.681Z,16.74
2019-04-26T11:28:47.180Z,17.10
2019-04-26T11:31:16.536Z,18.43
2019-04-26T11:33:49.528Z,19.47
2019-04-26T11:36:16.968Z,18.80
2019-04-26T11:38:46.263Z,18.73
2019-04-26T11:41:15.699Z,19.08
2019-04-26T11:43:44.978Z,18.17
2019-04-26T11:46:14.290Z,18.48
2019-04-26T11:48:43.646Z,19.13
2019-04-26T11:51:13.285Z,20.10
2019-04-26T11:53:44.770Z,20.81
2019-04-26T11:56:13.568Z,19.93
2019-04-26T11:58:42.841Z,19.13
2019-04-26T12:01:14.003Z,18.82
2019-04-26T12:03:45.011Z,19.02
2019-04-26T12:06:21.685Z,18.67
2019-04-26T12:08:55.600Z,19.27
2019-04-26T12:11:31.552Z,19.72
2019-04-26T12:13:59.541Z,20.65
2019-04-26T12:16:26.968Z,19.49
2019-04-26T12:18:56.259Z,18.53
2019-04-26T12:21:25.582Z,19.60
2019-04-26T12:23:55.591Z,19.74
2019-04-26T12:26:25.765Z,18.50
2019-04-26T12:28:55.058Z,17.55
2019-04-26T12:31:24.351Z,17.24
2019-04-26T12:33:53.629Z,17.68
2019-04-26T12:36:23.122Z,16.92
2019-04-26T12:38:52.491Z,16.72
2019-04-26T12:41:39.190Z,17.80
2019-04-26T12:43:54.441Z,17.15
2019-04-26T12:46:42.155Z,17.37
2019-04-26T12:49:11.644Z,18.67
2019-04-26T12:51:42.903Z,19.37
2019-04-26T12:54:13.032Z,18.46
2019-04-26T12:56:42.410Z,18.79
2019-04-26T12:59:11.749Z,19.59
2019-04-26T13:01:42.596Z,19.83
2019-04-26T13:04:12.054Z,20.31
2019-04-26T13:07:02.358Z,19.83
2019-04-26T13:09:32.479Z,19.25
2019-04-26T13:12:18.867Z,19.33
2019-04-26T13:14:53.044Z,20.82
2019-04-26T13:17:24.111Z,22.15
2019-04-26T13:19:55.317Z,21.43
2019-04-26T13:22:24.746Z,18.90
2019-04-26T13:24:54.155Z,18.37
2019-04-26T13:27:23.491Z,18.12
2019-04-26T13:30:01.720Z,18.38
2019-04-26T13:32:26.987Z,17.46
2019-04-26T13:34:56.300Z,17.25
2019-04-26T13:37:25.694Z,17.19
2019-04-26T13:39:56.461Z,17.32
2019-04-26T13:42:26.013Z,18.23
2019-04-26T13:44:59.668Z,19.03
2019-04-26T13:47:36.437Z,18.42
2019-04-26T13:50:12.983Z,18.01
2019-04-26T13:52:42.357Z,19.29
2019-04-26T13:55:11.839Z,19.62
2019-04-26T13:57:44.486Z,19.25
2019-04-26T14:00:14.005Z,18.92
2019-04-26T14:02:43.502Z,19.74
2019-04-26T14:05:15.117Z,19.24
2019-04-26T14:07:44.958Z,20.08
2019-04-26T14:10:14.286Z,20.18
2019-04-26T14:12:46.205Z,19.37
2019-04-26T14:15:14.800Z,18.51
2019-04-26T14:17:44.247Z,18.79
2019-04-26T14:20:13.981Z,19.61
2019-04-26T14:22:56.062Z,19.57
2019-04-26T14:25:34.067Z,19.88
2019-04-26T14:28:03.403Z,19.75
2019-04-26T14:30:32.731Z,18.75
2019-04-26T14:33:02.023Z,19.01
2019-04-26T14:35:31.960Z,18.91
2019-04-26T14:38:01.259Z,19.56
2019-04-26T14:40:30.620Z,17.97
2019-04-26T14:43:06.913Z,18.19
2019-04-26T14:45:32.550Z,18.26
2019-04-26T14:48:03.971Z,18.31
2019-04-26T14:50:34.433Z,18.16
2019-04-26T14:53:03.758Z,17.87
2019-04-26T14:55:33.097Z,17.91
2019-04-26T14:58:03.184Z,18.16
2019-04-26T15:00:41.821Z,18.96
2019-04-26T15:03:12.765Z,19.43
2019-04-26T15:05:54.070Z,19.89
2019-04-26T15:08:25.022Z,18.96
2019-04-26T15:11:00.917Z,18.44
2019-04-26T15:13:25.283Z,18.50
2019-04-26T15:15:54.730Z,18.50
2019-04-26T15:18:24.034Z,18.82
2019-04-26T15:20:57.107Z,18.97
2019-04-26T15:23:26.519Z,18.07
2019-04-26T15:25:58.398Z,17.50
2019-04-26T15:28:26.829Z,17.28
2019-04-26T15:30:56.329Z,17.20
2019-04-26T15:33:25.629Z,17.35
2019-04-26T15:35:54.977Z,17.47
2019-04-26T15:38:24.625Z,17.86
2019-04-26T15:41:05.475Z,17.98
2019-04-26T15:43:34.426Z,17.55
2019-04-26T15:46:12.013Z,17.13
2019-04-26T15:48:50.187Z,17.81
2019-04-26T15:51:20.120Z,18.82
2019-04-26T15:53:49.787Z,19.27
2019-04-26T15:56:19.172Z,19.17
2019-04-26T15:58:49.177Z,19.36
2019-04-26T16:01:18.569Z,19.83
2019-04-26T16:03:47.854Z,20.44
2019-04-26T16:06:17.167Z,19.80
2019-04-26T16:08:46.483Z,19.55
2019-04-26T16:11:15.830Z,19.21
2019-04-26T16:13:52.160Z,19.73
2019-04-26T16:16:16.653Z,19.48
2019-04-26T16:18:49.976Z,17.97
2019-04-26T16:21:19.424Z,17.88
2019-04-26T16:23:53.652Z,18.05
2019-04-26T16:26:19.967Z,18.96
2019-04-26T16:29:04.624Z,19.19
2019-04-26T16:31:35.736Z,18.06
2019-04-26T16:34:17.016Z,18.06
2019-04-26T16:36:46.372Z,18.05
2019-04-26T16:39:15.845Z,17.47
2019-04-26T16:41:45.208Z,17.01
2019-04-26T16:44:14.498Z,16.77
2019-04-26T16:46:44.068Z,16.89
2019-04-26T16:49:14.151Z,16.99
2019-04-26T16:51:44.531Z,17.22
2019-04-26T16:54:21.078Z,17.29
2019-04-26T16:56:44.896Z,17.11
2019-04-26T16:59:22.368Z,16.83
2019-04-26T17:01:47.272Z,16.74
2019-04-26T17:04:20.067Z,16.60
2019-04-26T17:06:48.857Z,16.49
2019-04-26T17:09:19.247Z,16.51
2019-04-26T17:11:48.533Z,16.44
2019-04-26T17:14:17.831Z,16.42
2019-04-26T17:16:47.128Z,16.37
2019-04-26T17:19:16.512Z,16.37
2019-04-26T17:21:47.442Z,16.31
2019-04-26T17:24:38.043Z,16.20
2019-04-26T17:27:09.765Z,16.20
2019-04-26T17:29:39.048Z,16.31
2019-04-26T17:32:13.884Z,16.45
2019-04-26T17:34:40.696Z,16.38
2019-04-26T17:37:14.775Z,16.17
2019-04-26T17:39:42.026Z,16.18
2019-04-26T17:42:11.306Z,16.09
2019-04-26T17:44:41.243Z,16.10
2019-04-26T17:47:10.843Z,15.98
2019-04-26T17:49:43.897Z,15.83
2019-04-26T17:52:12.681Z,15.69
2019-04-26T17:54:47.544Z,15.71
2019-04-26T17:57:14.851Z,15.60
2019-04-26T17:59:48.894Z,15.50
2019-04-26T18:02:31.545Z,15.41
2019-04-26T18:04:58.192Z,15.59
2019-04-26T18:07:39.680Z,15.57
2019-04-26T18:09:56.968Z,15.52
2019-04-26T18:12:24.199Z,15.45
2019-04-26T18:14:53.611Z,15.39
2019-04-26T18:17:27.641Z,15.15
2019-04-26T18:20:16.174Z,15.00
2019-04-26T18:22:53.148Z,14.89
2019-04-26T18:25:23.525Z,14.82
2019-04-26T18:27:53.452Z,14.75
2019-04-26T18:30:24.073Z,14.65
2019-04-26T18:32:53.475Z,14.55
2019-04-26T18:35:23.407Z,14.46
2019-04-26T18:37:53.949Z,14.42
2019-04-26T18:40:23.496Z,14.27
2019-04-26T18:42:55.014Z,14.19
2019-04-26T18:45:28.744Z,14.08
2019-04-26T18:48:00.983Z,13.92
2019-04-26T18:50:28.465Z,13.75
2019-04-26T18:52:59.855Z,13.59
2019-04-26T18:55:31.064Z,13.53
2019-04-26T18:58:03.580Z,13.47
2019-04-26T19:00:34.651Z,13.35
2019-04-26T19:03:03.869Z,13.30
2019-04-26T19:05:33.863Z,13.25
2019-04-26T19:08:05.099Z,13.19
2019-04-26T19:10:34.966Z,13.23
2019-04-26T19:13:07.346Z,13.31
2019-04-26T19:15:57.549Z,13.41
2019-04-26T19:18:31.489Z,13.49
2019-04-26T19:21:11.560Z,13.51
2019-04-26T19:23:41.563Z,13.48
2019-04-26T19:26:13.690Z,13.52
2019-04-26T19:28:44.606Z,13.45
2019-04-26T19:31:14.152Z,13.38
2019-04-26T19:33:43.511Z,13.25
2019-04-26T19:36:13.830Z,13.22
2019-04-26T19:38:49.766Z,13.26
2019-04-26T19:41:17.328Z,13.44
2019-04-26T19:43:46.266Z,13.43
2019-04-26T19:46:23.402Z,13.54
2019-04-26T19:49:10.084Z,13.61
2019-04-26T19:52:02.203Z,13.59
2019-04-26T19:54:38.470Z,13.59
2019-04-26T19:57:11.457Z,13.65
2019-04-26T19:59:42.278Z,13.55
2019-04-26T20:02:12.780Z,13.65
2019-04-26T20:04:42.194Z,13.61
2019-04-26T20:07:13.658Z,13.66
2019-04-26T20:09:42.926Z,13.64
2019-04-26T20:12:12.470Z,13.66
2019-04-26T20:14:49.203Z,13.55
2019-04-26T20:17:19.635Z,13.55
2019-04-26T20:19:47.703Z,13.43
2019-04-26T20:22:15.982Z,13.36
2019-04-26T20:24:48.782Z,13.35
2019-04-26T20:27:20.677Z,13.41
2019-04-26T20:29:49.365Z,13.33
2019-04-26T20:32:38.315Z,13.27
2019-04-26T20:35:14.310Z,13.17
2019-04-26T20:37:45.186Z,13.04
2019-04-26T20:40:22.239Z,12.94
2019-04-26T20:42:48.772Z,12.89
2019-04-26T20:45:18.048Z,12.77
2019-04-26T20:47:51.937Z,12.71
2019-04-26T20:50:18.512Z,12.71
2019-04-26T20:52:47.896Z,12.66
2019-04-26T20:55:17.160Z,12.66
2019-04-26T20:57:46.489Z,12.56
2019-04-26T21:00:17.743Z,12.60
2019-04-26T21:02:47.217Z,12.53
2019-04-26T21:05:16.502Z,12.48
2019-04-26T21:07:49.718Z,12.42
2019-04-26T21:10:21.681Z,12.36
2019-04-26T21:12:52.215Z,12.31
2019-04-26T21:15:20.220Z,12.26
2019-04-26T21:17:51.754Z,12.16
2019-04-26T21:20:21.609Z,12.13
2019-04-26T21:22:52.413Z,12.17
2019-04-26T21:25:35.447Z,12.12
2019-04-26T21:28:24.144Z,12.09
2019-04-26T21:30:55.987Z,12.07
2019-04-26T21:33:35.352Z,12.09
2019-04-26T21:36:05.823Z,12.09
2019-04-26T21:38:53.847Z,12.14
2019-04-26T21:41:28.189Z,12.16
2019-04-26T21:43:59.035Z,12.19
2019-04-26T21:46:29.011Z,12.21
2019-04-26T21:48:58.499Z,12.19
2019-04-26T21:51:27.786Z,12.17
2019-04-26T21:53:57.083Z,12.15
2019-04-26T21:56:26.360Z,12.07
2019-04-26T21:58:55.815Z,12.06
2019-04-26T22:01:26.699Z,11.99
2019-04-26T22:03:58.461Z,12.04
2019-04-26T22:06:28.656Z,12.02
2019-04-26T22:09:02.634Z,11.99
2019-04-26T22:11:32.253Z,12.03
2019-04-26T22:14:05.774Z,11.93
2019-04-26T22:16:38.058Z,11.88
2019-04-26T22:19:27.913Z,11.81
2019-04-26T22:22:04.230Z,11.87
2019-04-26T22:24:39.937Z,11.83
2019-04-26T22:27:09.333Z,11.71
2019-04-26T22:29:39.427Z,11.65
2019-04-26T22:32:11.458Z,11.58
2019-04-26T22:34:42.782Z,11.53
2019-04-26T22:37:12.907Z,11.44
2019-04-26T22:39:44.376Z,11.40
2019-04-26T22:42:14.281Z,11.36
2019-04-26T22:44:54.210Z,11.32
2019-04-26T22:47:25.307Z,11.19
2019-04-26T22:49:56.239Z,11.18
2019-04-26T22:52:25.543Z,11.17
2019-04-26T22:54:55.006Z,11.07
2019-04-26T22:57:24.363Z,11.05
2019-04-26T22:59:55.203Z,11.07
2019-04-26T23:02:27.739Z,10.99
2019-04-26T23:05:00.375Z,11.06
2019-04-26T23:07:27.278Z,10.99
2019-04-26T23:09:56.600Z,10.91
2019-04-26T23:12:28.263Z,10.91
2019-04-26T23:15:05.620Z,10.85
2019-04-26T23:17:36.588Z,10.76
2019-04-26T23:20:16.815Z,10.73
2019-04-26T23:22:46.121Z,10.61
2019-04-26T23:25:15.544Z,10.72
2019-04-26T23:27:46.385Z,10.68
2019-04-26T23:30:16.503Z,10.70
2019-04-26T23:32:48.507Z,10.68
2019-04-26T23:35:16.801Z,10.65
2019-04-26T23:37:46.059Z,10.56
2019-04-26T23:40:15.377Z,10.49
2019-04-26T23:42:47.606Z,10.43
2019-04-26T23:45:15.628Z,10.37
2019-04-26T23:47:44.896Z,10.34
2019-04-26T23:50:14.196Z,10.36
2019-04-26T23:52:44.566Z,10.27
2019-04-26T23:55:13.902Z,10.21
2019-04-26T23:57:43.569Z,10.19
